createdAt,value
2022-09-24T00:03:31.010Z,5.81
2022-09-24T00:08:34.249Z,5.74
2022-09-24T00:13:37.030Z,5.68
2022-09-24T00:18:40.603Z,5.62
2022-09-24T00:23:43.728Z,5.59
2022-09-24T00:28:49.251Z,5.54
2022-09-24T00:33:52.524Z,5.48
2022-09-24T00:38:57.294Z,5.42
2022-09-24T00:44:00.352Z,5.39
2022-09-24T00:49:11.021Z,5.33
2022-09-24T00:54:18.602Z,5.29
2022-09-24T00:59:23.935Z,5.23
2022-09-24T01:04:27.996Z,5.23
2022-09-24T01:09:31.255Z,5.19
2022-09-24T01:14:52.415Z,5.12
2022-09-24T01:20:02.936Z,5.08
2022-09-24T01:26:00.222Z,5.03
2022-09-24T01:31:33.967Z,5.01
2022-09-24T01:36:37.308Z,5.02
2022-09-24T01:41:42.359Z,5.01
2022-09-24T01:46:45.252Z,4.98
2022-09-24T01:51:52.319Z,4.96
2022-09-24T01:57:05.415Z,4.93
2022-09-24T02:02:16.166Z,4.88
2022-09-24T02:07:33.483Z,4.84
2022-09-24T02:12:42.382Z,4.80
2022-09-24T02:17:48.479Z,4.75
2022-09-24T02:22:51.824Z,4.74
2022-09-24T02:27:54.581Z,4.72
2022-09-24T02:32:57.618Z,4.68
2022-09-24T02:38:05.460Z,4.68
2022-09-24T02:43:08.848Z,4.64
2022-09-24T02:48:11.815Z,4.62
2022-09-24T02:53:14.343Z,4.62
2022-09-24T02:58:16.935Z,4.60
2022-09-24T03:03:19.541Z,4.55
2022-09-24T03:08:24.307Z,4.53
2022-09-24T03:13:27.628Z,4.46
2022-09-24T03:18:30.358Z,4.42
2022-09-24T03:23:32.975Z,4.42
2022-09-24T03:28:35.677Z,4.42
2022-09-24T03:33:43.909Z,4.40
2022-09-24T03:38:48.507Z,4.34
2022-09-24T03:43:51.351Z,4.31
2022-09-24T03:48:53.982Z,4.25
2022-09-24T03:53:56.631Z,4.20
2022-09-24T03:58:59.275Z,4.18
2022-09-24T04:04:02.386Z,4.15
2022-09-24T04:09:05.196Z,4.11
2022-09-24T04:14:07.853Z,4.08
2022-09-24T04:19:10.770Z,4.06
2022-09-24T04:24:13.961Z,4.03
2022-09-24T04:29:16.901Z,4.03
2022-09-24T04:34:20.948Z,4.01
2022-09-24T04:39:26.757Z,4.00
2022-09-24T04:44:30.331Z,4.02
2022-09-24T04:49:33.226Z,4.07
2022-09-24T04:54:35.984Z,4.13
2022-09-24T04:59:38.637Z,4.20
2022-09-24T05:04:41.336Z,4.28
2022-09-24T05:09:55.915Z,4.40
2022-09-24T05:15:01.521Z,4.51
2022-09-24T05:20:08.474Z,4.62
2022-09-24T05:25:12.611Z,4.78
2022-09-24T05:30:15.705Z,4.98
2022-09-24T05:35:24.109Z,5.19
2022-09-24T05:40:45.345Z,5.38
2022-09-24T05:45:51.443Z,5.58
2022-09-24T05:50:57.080Z,5.73
2022-09-24T05:55:59.825Z,5.83
2022-09-24T06:01:02.727Z,5.88
2022-09-24T06:06:06.364Z,5.99
2022-09-24T06:11:09.556Z,6.12
2022-09-24T06:16:14.912Z,6.28
2022-09-24T06:21:20.353Z,6.55
2022-09-24T06:26:23.052Z,6.78
2022-09-24T06:31:25.789Z,7.05
2022-09-24T06:36:29.209Z,7.33
2022-09-24T06:41:31.796Z,7.60
2022-09-24T06:46:34.523Z,7.93
2022-09-24T06:51:37.262Z,8.16
2022-09-24T06:56:40.421Z,8.38
2022-09-24T07:01:43.221Z,8.48
2022-09-24T07:07:09.059Z,8.59
2022-09-24T07:12:11.769Z,8.79
2022-09-24T07:17:14.938Z,9.03
2022-09-24T07:22:18.782Z,9.33
2022-09-24T07:27:21.509Z,9.59
2022-09-24T07:32:29.566Z,9.78
2022-09-24T07:37:34.139Z,10.02
2022-09-24T07:42:37.338Z,10.32
2022-09-24T07:47:40.054Z,10.71
2022-09-24T07:52:42.731Z,10.98
2022-09-24T07:57:50.103Z,11.26
2022-09-24T08:02:53.873Z,11.44
2022-09-24T08:07:57.683Z,11.55
2022-09-24T08:13:03.348Z,11.69
2022-09-24T08:18:07.148Z,11.82
2022-09-24T08:23:12.827Z,11.82
2022-09-24T08:28:20.110Z,11.85
2022-09-24T08:33:23.206Z,12.02
2022-09-24T08:38:26.195Z,12.20
2022-09-24T08:43:43.103Z,12.48
2022-09-24T08:48:51.589Z,12.76
2022-09-24T08:54:09.736Z,13.00
2022-09-24T08:59:28.871Z,13.16
2022-09-24T09:04:39.611Z,13.31
2022-09-24T09:09:56.086Z,13.48
2022-09-24T09:15:12.367Z,13.77
2022-09-24T09:20:27.561Z,13.91
2022-09-24T09:25:36.030Z,14.00
2022-09-24T09:30:44.918Z,14.37
2022-09-24T09:36:25.021Z,14.69
2022-09-24T09:42:15.197Z,15.05
2022-09-24T09:47:37.335Z,15.41
2022-09-24T09:52:40.195Z,15.67
2022-09-24T09:57:42.863Z,15.90
2022-09-24T10:02:50.944Z,16.06
2022-09-24T10:07:53.734Z,16.20
2022-09-24T10:13:12.370Z,16.28
2022-09-24T10:18:15.349Z,16.45
2022-09-24T10:23:21.328Z,16.70
2022-09-24T10:28:42.930Z,17.05
2022-09-24T10:33:47.335Z,17.51
2022-09-24T10:38:50.214Z,17.90
2022-09-24T10:43:54.386Z,18.10
2022-09-24T10:49:02.491Z,18.25
2022-09-24T10:54:48.965Z,18.26
2022-09-24T10:59:55.076Z,18.43
2022-09-24T11:05:21.613Z,18.81
2022-09-24T11:10:30.439Z,19.30
2022-09-24T11:15:42.032Z,19.55
2022-09-24T11:21:03.317Z,19.81
2022-09-24T11:26:15.901Z,19.70
2022-09-24T11:31:54.314Z,19.83
2022-09-24T11:37:21.120Z,19.75
2022-09-24T11:42:29.112Z,19.44
2022-09-24T11:48:25.298Z,19.42
2022-09-24T11:53:52.665Z,19.95
2022-09-24T11:59:19.959Z,20.46
2022-09-24T12:04:40.348Z,20.49
2022-09-24T12:09:59.994Z,20.33
2022-09-24T12:15:21.517Z,20.37
2022-09-24T12:20:32.002Z,20.42
2022-09-24T12:25:40.268Z,20.28
2022-09-24T12:31:12.430Z,19.97
2022-09-24T12:36:22.693Z,19.59
2022-09-24T12:41:36.390Z,19.32
2022-09-24T12:46:48.471Z,19.09
2022-09-24T12:51:56.349Z,18.91
2022-09-24T12:57:25.504Z,18.69
2022-09-24T13:02:45.489Z,18.43
2022-09-24T13:07:59.450Z,18.26
2022-09-24T13:13:04.303Z,18.12
2022-09-24T13:18:10.902Z,18.06
2022-09-24T13:23:20.475Z,17.94
2022-09-24T13:28:37.867Z,17.90
2022-09-24T13:33:44.950Z,17.86
2022-09-24T13:39:12.508Z,17.86
2022-09-24T13:44:27.955Z,17.92
2022-09-24T13:49:32.162Z,18.04
2022-09-24T13:54:39.799Z,18.09
2022-09-24T13:59:42.616Z,18.11
2022-09-24T14:04:47.618Z,18.06
2022-09-24T14:09:51.568Z,18.00
2022-09-24T14:14:58.356Z,17.92
2022-09-24T14:20:01.500Z,17.80
2022-09-24T14:25:09.635Z,17.73
2022-09-24T14:30:21.905Z,17.70
2022-09-24T14:35:32.833Z,17.72
2022-09-24T14:40:44.391Z,17.71
2022-09-24T14:45:49.202Z,17.63
2022-09-24T14:50:51.974Z,17.57
2022-09-24T14:55:54.736Z,17.54
2022-09-24T15:01:03.267Z,17.50
2022-09-24T15:06:27.223Z,17.50
2022-09-24T15:11:37.564Z,17.47
2022-09-24T15:16:40.844Z,17.45
2022-09-24T15:21:43.956Z,17.41
2022-09-24T15:27:02.062Z,17.36
2022-09-24T15:32:12.622Z,17.27
2022-09-24T15:37:20.266Z,17.15
2022-09-24T15:42:24.662Z,17.10
2022-09-24T15:47:27.571Z,17.03
2022-09-24T15:52:32.023Z,16.96
2022-09-24T15:57:34.807Z,16.88
2022-09-24T16:02:37.621Z,16.79
2022-09-24T16:07:40.851Z,16.74
2022-09-24T16:12:43.968Z,16.66
2022-09-24T16:17:49.854Z,16.60
2022-09-24T16:22:52.551Z,16.53
2022-09-24T16:27:57.099Z,16.46
2022-09-24T16:32:59.672Z,16.38
2022-09-24T16:38:02.821Z,16.32
2022-09-24T16:43:11.395Z,16.23
2022-09-24T16:48:14.121Z,16.13
2022-09-24T16:53:16.840Z,16.05
2022-09-24T16:58:20.516Z,15.92
2022-09-24T17:03:23.134Z,15.86
2022-09-24T17:08:45.755Z,15.73
2022-09-24T17:13:48.386Z,15.58
2022-09-24T17:18:54.363Z,15.47
2022-09-24T17:23:56.957Z,15.35
2022-09-24T17:29:00.222Z,15.25
2022-09-24T17:34:12.476Z,15.14
2022-09-24T17:39:15.058Z,15.07
2022-09-24T17:44:18.938Z,14.96
2022-09-24T17:49:21.549Z,14.88
2022-09-24T17:54:26.869Z,14.78
2022-09-24T17:59:29.450Z,14.68
2022-09-24T18:04:35.758Z,14.59
2022-09-24T18:09:38.538Z,14.49
2022-09-24T18:14:41.198Z,14.38
2022-09-24T18:19:43.796Z,14.27
2022-09-24T18:24:47.611Z,14.19
2022-09-24T18:29:50.271Z,14.07
2022-09-24T18:34:53.327Z,13.98
2022-09-24T18:39:55.920Z,13.89
2022-09-24T18:44:58.508Z,13.79
2022-09-24T18:50:01.981Z,13.73
2022-09-24T18:55:04.997Z,13.62
2022-09-24T19:00:29.150Z,13.51
2022-09-24T19:05:33.608Z,13.45
2022-09-24T19:10:36.261Z,13.40
2022-09-24T19:15:40.160Z,13.38
2022-09-24T19:20:45.866Z,13.40
2022-09-24T19:25:48.502Z,13.38
2022-09-24T19:30:53.226Z,13.37
2022-09-24T19:36:04.696Z,13.37
2022-09-24T19:41:10.648Z,13.35
2022-09-24T19:46:17.180Z,13.29
2022-09-24T19:51:27.847Z,13.25
2022-09-24T19:56:31.941Z,13.21
2022-09-24T20:01:34.738Z,13.17
2022-09-24T20:06:38.354Z,13.13
2022-09-24T20:11:41.054Z,13.08
2022-09-24T20:16:44.653Z,13.00
2022-09-24T20:21:47.644Z,12.94
2022-09-24T20:27:08.734Z,12.87
2022-09-24T20:32:15.458Z,12.82
2022-09-24T20:37:18.122Z,12.76
2022-09-24T20:42:20.788Z,12.76
2022-09-24T20:47:23.615Z,12.73
2022-09-24T20:52:26.260Z,12.74
2022-09-24T20:57:29.021Z,12.71
2022-09-24T21:02:32.205Z,12.71
2022-09-24T21:07:35.609Z,12.68
2022-09-24T21:12:39.029Z,12.65
2022-09-24T21:17:51.012Z,12.61
2022-09-24T21:23:06.108Z,12.55
2022-09-24T21:28:09.524Z,12.46
2022-09-24T21:33:12.866Z,12.44
2022-09-24T21:38:18.506Z,12.40
2022-09-24T21:43:23.651Z,12.38
2022-09-24T21:48:26.973Z,12.31
2022-09-24T21:53:29.666Z,12.26
2022-09-24T21:58:32.686Z,12.23
2022-09-24T22:03:35.229Z,12.16
2022-09-24T22:08:38.131Z,12.09
2022-09-24T22:13:41.013Z,11.99
2022-09-24T22:18:43.659Z,11.89
2022-09-24T22:23:46.258Z,11.78
2022-09-24T22:28:49.163Z,11.72
2022-09-24T22:34:10.588Z,11.70
2022-09-24T22:39:13.436Z,11.64
2022-09-24T22:44:16.083Z,11.58
2022-09-24T22:49:19.645Z,11.51
2022-09-24T22:54:24.263Z,11.48
2022-09-24T22:59:26.951Z,11.41
2022-09-24T23:04:30.145Z,11.37
2022-09-24T23:09:32.781Z,11.38
2022-09-24T23:14:35.423Z,11.31
2022-09-24T23:19:50.057Z,11.27
2022-09-24T23:24:53.193Z,11.25
2022-09-24T23:29:56.979Z,11.20
2022-09-24T23:35:00.229Z,11.17
2022-09-24T23:40:03.278Z,11.14
2022-09-24T23:45:06.554Z,11.11
2022-09-24T23:50:09.416Z,11.10
2022-09-24T23:55:12.103Z,11.09
